Time;durP1;ratioP1;P1;durP2;ratioP2;P2;SDS_P1;SDS_P2;PMS_P1;PMS_P2;Temp;Humidity;BMP_temperature;BMP_pressure;BME280_temperature;BME280_humidity;BME280_pressure;Samples;Min_cycle;Max_cycle;Signal;HPM_P1;HPM_P2
2023/03/31 00:05:36;;;;;;;18.60;13.60;;;;;;;8.96;82.44;97728.63;435284;1256;97867;-41
2023/03/31 00:15:44;;;;;;;17.40;12.60;;;;;;;8.96;82.74;97726.89;435301;1256;109653;-41
2023/03/31 00:25:52;;;;;;;16.00;10.00;;;;;;;8.96;83.02;97724.81;436647;1253;109180;-40
2023/03/31 00:36:00;;;;;;;20.10;10.80;;;;;;;8.99;83.00;97726.20;435979;1256;98001;-41
2023/03/31 00:56:19;;;;;;;11.20;7.60;;;;;;;8.77;82.64;97725.77;435525;1256;97477;-41
2023/03/31 01:06:29;;;;;;;8.20;5.70;;;;;;;8.69;83.15;97727.95;435796;1256;109873;-40
2023/03/31 01:16:38;;;;;;;10.10;6.70;;;;;;;8.71;83.40;97729.92;435926;1256;107592;-41
2023/03/31 01:26:50;;;;;;;7.80;5.90;;;;;;;8.65;83.07;97717.45;435182;1252;97868;-41
2023/03/31 01:37:31;;;;;;;6.50;5.20;;;;;;;8.49;83.00;97710.98;435058;1256;106144;-42
2023/03/31 01:57:43;;;;;;;6.80;4.60;;;;;;;8.18;82.89;97709.77;435197;1256;110062;-41
2023/03/31 02:07:54;;;;;;;5.30;4.60;;;;;;;8.06;82.86;97719.30;435695;1256;108562;-40
2023/03/31 02:18:09;;;;;;;8.70;5.60;;;;;;;7.94;82.74;97716.59;436394;1253;97894;-41
2023/03/31 02:28:19;;;;;;;8.30;6.10;;;;;;;7.87;82.80;97717.27;435530;1253;107183;-41
2023/03/31 02:48:37;;;;;;;7.90;6.10;;;;;;;7.89;82.97;97704.79;436163;1256;110123;-40
2023/03/31 02:59:05;;;;;;;9.10;7.10;;;;;;;7.84;82.85;97694.95;435750;1256;108212;-41
2023/03/31 03:09:17;;;;;;;9.10;7.10;;;;;;;7.81;82.87;97696.58;434908;1253;97932;-41
2023/03/31 03:19:25;;;;;;;9.70;8.30;;;;;;;7.71;82.91;97697.21;435133;1256;108063;-41
2023/03/31 03:29:32;;;;;;;11.50;8.70;;;;;;;7.56;83.11;97701.02;435174;1253;97877;-40
2023/03/31 03:39:39;;;;;;;12.30;8.30;;;;;;;7.57;83.13;97703.30;435415;1254;110430;-40
2023/03/31 03:49:47;;;;;;;10.50;8.10;;;;;;;7.60;83.18;97685.64;434679;1253;277209;-40
2023/03/31 03:59:55;;;;;;;14.80;10.20;;;;;;;7.54;83.04;97673.40;435006;1253;97893;-41
2023/03/31 04:10:02;;;;;;;14.60;10.60;;;;;;;7.41;82.78;97672.53;435038;1256;109989;-42
2023/03/31 04:20:12;;;;;;;13.60;10.30;;;;;;;7.29;83.00;97672.23;435282;1253;97898;-40
2023/03/31 04:30:22;;;;;;;14.60;11.00;;;;;;;7.23;82.95;97663.20;435066;1256;110295;-41
2023/03/31 04:40:29;;;;;;;20.90;12.30;;;;;;;7.25;83.10;97659.36;435097;1256;107104;-41
2023/03/31 04:50:36;;;;;;;20.90;14.60;;;;;;;7.32;83.13;97654.56;435039;1256;97877;-41
2023/03/31 05:00:44;;;;;;;25.20;13.90;;;;;;;7.42;82.99;97640.42;435050;1256;107614;-41
2023/03/31 05:10:51;;;;;;;21.70;14.50;;;;;;;7.57;83.13;97627.21;435060;1253;97476;-40
2023/03/31 05:21:07;;;;;;;27.00;15.90;;;;;;;7.66;83.10;97614.35;435013;1254;110876;-41
2023/03/31 05:31:15;;;;;;;20.70;14.00;;;;;;;7.88;82.99;97613.85;435035;1253;108702;-41
2023/03/31 05:41:23;;;;;;;25.60;13.00;;;;;;;8.15;82.80;97602.50;434981;1256;98405;-46
2023/03/31 05:51:30;;;;;;;15.30;11.80;;;;;;;8.52;83.01;97591.98;435120;1256;110323;-41
2023/03/31 06:01:36;;;;;;;20.40;13.70;;;;;;;9.50;82.91;97590.11;435092;1256;108570;-40
2023/03/31 06:11:44;;;;;;;22.40;11.80;;;;;;;10.29;82.48;97598.52;434988;1256;97493;-39
2023/03/31 06:21:52;;;;;;;17.00;10.20;;;;;;;10.12;81.15;97597.05;434990;1253;110270;-41
2023/03/31 06:42:07;;;;;;;16.80;9.40;;;;;;;9.91;80.80;97592.63;434936;1259;97903;-42
2023/03/31 06:52:14;;;;;;;11.70;8.60;;;;;;;10.09;80.76;97588.02;434838;1256;110517;-42
2023/03/31 07:02:22;;;;;;;13.70;8.80;;;;;;;10.51;80.93;97585.19;435203;1254;108509;-41
2023/03/31 07:12:28;;;;;;;8.50;7.10;;;;;;;12.51;80.84;97576.40;435403;1261;97467;-41
2023/03/31 07:22:35;;;;;;;9.30;5.40;;;;;;;12.89;78.70;97571.02;435125;1256;97893;-41
2023/03/31 07:32:42;;;;;;;11.60;5.20;;;;;;;13.00;77.90;97558.84;435017;1257;107290;-41
2023/03/31 07:42:51;;;;;;;9.50;5.10;;;;;;;13.42;77.67;97552.41;435075;1256;97352;-42
2023/03/31 07:52:58;;;;;;;9.70;4.20;;;;;;;13.72;76.63;97542.83;435162;1255;108924;-40
2023/03/31 08:13:12;;;;;;;6.90;3.50;;;;;;;14.36;74.42;97523.71;435300;1257;97564;-41
2023/03/31 08:23:19;;;;;;;7.00;3.60;;;;;;;14.99;73.83;97503.67;435055;1254;109298;-42
2023/03/31 08:33:27;;;;;;;6.90;3.40;;;;;;;15.39;72.28;97492.50;435067;1253;108520;-41
2023/03/31 08:43:39;;;;;;;7.10;3.40;;;;;;;15.65;70.35;97479.83;435085;1257;97477;-42
2023/03/31 08:53:50;;;;;;;5.30;2.70;;;;;;;15.61;69.35;97463.89;435130;1264;110641;-41
2023/03/31 09:04:05;;;;;;;4.60;2.60;;;;;;;15.79;68.76;97448.16;435089;1254;108329;-42
2023/03/31 09:14:27;;;;;;;4.30;3.00;;;;;;;15.55;68.26;97430.63;435226;1256;97870;-41
2023/03/31 09:24:32;;;;;;;6.50;3.00;;;;;;;16.02;68.30;97414.50;435140;1266;109619;-41
2023/03/31 09:34:40;;;;;;;7.40;2.90;;;;;;;16.54;67.12;97403.16;435137;1257;108605;-41
2023/03/31 09:54:55;;;;;;;;;;;;;;;17.28;63.94;97375.00;435055;1256;110937;-40
2023/03/31 10:05:02;;;;;;;5.60;2.40;;;;;;;16.82;62.82;97365.44;435060;1254;107326;-41
2023/03/31 10:15:20;;;;;;;4.70;2.10;;;;;;;16.58;63.03;97353.77;434983;1258;97367;-42
2023/03/31 10:25:28;;;;;;;9.20;2.10;;;;;;;16.53;62.17;97346.56;435082;1264;110091;-41
2023/03/31 10:35:36;;;;;;;5.20;2.30;;;;;;;16.80;60.98;97329.88;435103;1257;108674;-41
2023/03/31 10:45:42;;;;;;;5.90;3.20;;;;;;;16.67;59.61;97322.06;435087;1254;97779;-42
2023/03/31 10:55:53;;;;;;;7.70;2.60;;;;;;;16.39;59.41;97314.79;435197;1254;109998;-41
2023/03/31 11:06:04;;;;;;;6.20;4.20;;;;;;;16.63;59.67;97302.77;435573;1257;108346;-42
2023/03/31 11:16:13;;;;;;;7.50;2.40;;;;;;;16.54;58.93;97292.07;435718;1257;97878;-41
2023/03/31 11:36:40;;;;;;;4.30;2.60;;;;;;;15.95;59.21;97268.08;435152;1254;108170;-41
2023/03/31 11:46:46;;;;;;;6.80;2.00;;;;;;;15.54;59.75;97249.17;435046;1257;96651;-40
2023/03/31 12:07:01;;;;;;;7.90;3.40;;;;;;;16.29;58.66;97213.46;435179;1253;108062;-41
2023/03/31 12:17:08;;;;;;;4.50;1.60;;;;;;;16.69;58.26;97194.70;434948;1256;96634;-42
2023/03/31 12:37:57;;;;;;;7.60;3.20;;;;;;;16.35;57.81;97175.65;435233;1256;97732;-42
2023/03/31 12:48:10;;;;;;;6.70;2.80;;;;;;;16.06;58.40;97154.05;435021;1254;97150;-42
2023/03/31 12:58:47;;;;;;;5.00;3.10;;;;;;;15.74;59.20;97141.08;435238;1254;110442;-41
2023/03/31 13:08:54;;;;;;;11.00;2.50;;;;;;;15.25;58.95;97130.54;435177;1256;109365;-42
2023/03/31 13:19:01;;;;;;;8.50;2.40;;;;;;;15.10;58.59;97123.10;435180;1253;97915;-40
2023/03/31 13:29:09;;;;;;;8.40;3.20;;;;;;;15.00;58.94;97109.13;435107;1254;110217;-40
2023/03/31 13:39:37;;;;;;;14.10;3.40;;;;;;;15.15;59.10;97085.58;435154;1252;107854;-40
2023/03/31 13:49:53;;;;;;;7.30;2.70;;;;;;;15.04;59.29;97075.66;434926;1253;120527;-40
2023/03/31 14:00:21;;;;;;;8.50;1.60;;;;;;;13.93;60.89;97106.45;435008;1253;107329;-41
2023/03/31 14:10:26;;;;;;;9.20;2.80;;;;;;;12.70;62.41;97091.19;435246;1253;97984;-42
2023/03/31 14:20:34;;;;;;;13.00;5.30;;;;;;;12.09;63.93;97064.16;435202;1254;111231;-40
2023/03/31 14:30:41;;;;;;;22.10;10.80;;;;;;;11.97;65.57;97048.89;435183;1256;108289;-41
2023/03/31 14:40:52;;;;;;;22.70;8.30;;;;;;;12.35;67.06;97028.38;435086;1256;97862;-42
2023/03/31 14:50:57;;;;;;;17.20;8.30;;;;;;;12.89;67.45;97009.45;435027;1256;107509;-41
2023/03/31 15:01:05;;;;;;;18.80;8.80;;;;;;;13.08;67.96;96996.33;435125;1253;98012;-41
2023/03/31 15:11:19;;;;;;;7.00;3.40;;;;;;;13.03;68.38;96983.23;435273;1252;109219;-41
2023/03/31 15:21:31;;;;;;;8.00;4.90;;;;;;;12.71;68.56;96969.78;435291;1256;107758;-41
2023/03/31 15:41:45;;;;;;;8.70;3.20;;;;;;;12.06;69.00;96949.76;434799;1256;597031;-40
2023/03/31 15:51:54;;;;;;;10.10;4.60;;;;;;;11.85;69.67;96927.79;435400;1251;108488;-41
2023/03/31 16:02:02;;;;;;;17.50;6.60;;;;;;;11.59;70.29;96917.20;435384;1252;97973;-40
2023/03/31 16:12:10;;;;;;;16.50;9.10;;;;;;;11.52;71.05;96910.73;435348;1249;109254;-41
2023/03/31 16:22:19;;;;;;;14.30;7.80;;;;;;;11.53;71.53;96905.48;435403;1253;107730;-41
2023/03/31 16:32:26;;;;;;;17.10;8.10;;;;;;;11.42;72.24;96898.02;436089;1250;97892;-40
2023/03/31 16:42:34;;;;;;;23.00;11.20;;;;;;;11.37;72.51;96896.20;436188;1252;108514;-41
2023/03/31 16:52:41;;;;;;;33.60;13.40;;;;;;;11.32;72.72;96896.21;436694;1253;97201;-41
2023/03/31 17:02:48;;;;;;;25.50;13.30;;;;;;;11.20;72.97;96890.60;435815;1252;110164;-41
2023/03/31 17:12:56;;;;;;;25.70;14.70;;;;;;;11.04;73.38;96892.18;435831;1250;109216;-41
2023/03/31 17:23:03;;;;;;;21.60;12.60;;;;;;;10.94;73.52;96902.36;435923;1249;96629;-39
2023/03/31 17:33:10;;;;;;;23.50;10.80;;;;;;;10.77;73.99;96888.11;435700;1253;107956;-41
2023/03/31 17:43:17;;;;;;;29.90;14.80;;;;;;;10.66;74.29;96841.29;435816;1253;97458;-40
2023/03/31 17:53:23;;;;;;;24.40;14.30;;;;;;;10.49;74.48;96847.20;435747;1253;110602;-40
2023/03/31 18:03:31;;;;;;;23.80;13.10;;;;;;;10.26;74.71;96863.94;435738;1253;108484;-40
2023/03/31 18:13:39;;;;;;;27.60;14.10;;;;;;;10.08;75.00;96867.67;435681;1250;97999;-40
2023/03/31 18:33:53;;;;;;;30.70;17.00;;;;;;;9.69;75.83;96849.02;435618;1253;97867;-41
2023/03/31 18:44:00;;;;;;;29.80;19.20;;;;;;;9.51;76.07;96843.67;435678;1253;110298;-41
2023/03/31 18:54:08;;;;;;;37.60;22.30;;;;;;;9.40;76.60;96843.68;435641;1253;108088;-40
2023/03/31 19:04:15;;;;;;;56.30;27.40;;;;;;;9.37;77.31;96844.42;435504;1252;97943;-40
2023/03/31 19:14:22;;;;;;;52.60;30.80;;;;;;;9.30;78.15;96836.57;435672;1253;107656;-40
2023/03/31 19:24:28;;;;;;;51.20;29.50;;;;;;;9.21;78.46;96827.81;436538;1253;97986;-40
2023/03/31 19:34:35;;;;;;;40.50;23.90;;;;;;;9.18;78.57;96821.21;436385;1253;109561;-40
2023/03/31 19:44:45;;;;;;;43.30;26.30;;;;;;;9.15;78.84;96812.41;436199;1251;108243;-41
2023/03/31 19:54:52;;;;;;;42.40;24.20;;;;;;;8.99;78.91;96805.98;435756;1253;97482;-41
2023/03/31 20:04:59;;;;;;;37.50;23.50;;;;;;;8.80;79.13;96792.96;436176;1253;108910;-40
2023/03/31 20:15:08;;;;;;;42.40;26.10;;;;;;;8.67;79.48;96787.67;436909;1253;97858;-41
2023/03/31 20:25:15;;;;;;;41.90;23.30;;;;;;;8.66;79.62;96780.55;436543;1250;108539;-40
2023/03/31 20:35:23;;;;;;;34.60;22.10;;;;;;;8.58;79.53;96780.34;436211;1253;107446;-39
2023/03/31 20:45:31;;;;;;;38.40;23.00;;;;;;;8.48;79.77;96783.27;436824;1250;97864;-40
2023/03/31 20:55:39;;;;;;;34.70;23.30;;;;;;;8.40;79.94;96779.20;437382;1253;108454;-40
2023/03/31 21:05:47;;;;;;;42.60;27.60;;;;;;;8.30;80.02;96778.11;437325;1253;97880;-42
2023/03/31 21:15:55;;;;;;;47.30;26.90;;;;;;;8.07;80.30;96778.61;436327;1253;110223;-41
2023/03/31 21:26:04;;;;;;;43.50;28.10;;;;;;;7.92;80.76;96789.20;435814;1253;108908;-41
2023/03/31 21:36:15;;;;;;;49.00;29.50;;;;;;;7.92;80.98;96791.04;435590;1250;97896;-41
2023/03/31 21:46:25;;;;;;;34.50;20.00;;;;;;;8.07;81.20;96802.14;435485;1263;108201;-41
2023/03/31 21:56:32;;;;;;;26.70;15.20;;;;;;;8.21;81.03;96800.13;435498;1253;97965;-41
2023/03/31 22:06:40;;;;;;;15.30;10.00;;;;;;;8.28;81.09;96804.15;435477;1253;112298;-41
2023/03/31 22:16:47;;;;;;;12.90;8.40;;;;;;;8.26;81.21;96816.79;435478;1253;107431;-41
2023/03/31 22:26:54;;;;;;;11.30;7.10;;;;;;;8.23;80.99;96812.45;435551;1253;97861;-42
2023/03/31 22:37:02;;;;;;;11.30;6.50;;;;;;;8.10;80.96;96812.15;435373;1253;108590;-41
2023/03/31 22:47:08;;;;;;;11.10;6.60;;;;;;;8.00;81.06;96824.38;435412;1250;96607;-43
2023/03/31 22:57:15;;;;;;;11.60;5.60;;;;;;;7.88;80.83;96831.01;435579;1253;108984;-40
2023/03/31 23:07:22;;;;;;;11.10;6.50;;;;;;;7.69;80.96;96829.59;435412;1250;107902;-40
2023/03/31 23:17:28;;;;;;;6.40;4.20;;;;;;;7.55;80.86;96828.83;435539;1253;97484;-40
2023/03/31 23:27:35;;;;;;;7.30;4.50;;;;;;;7.50;81.07;96823.80;435827;1253;107290;-41
2023/03/31 23:37:43;;;;;;;5.00;3.70;;;;;;;7.44;80.70;96811.46;435435;1253;97877;-41
2023/03/31 23:47:49;;;;;;;6.50;4.30;;;;;;;7.36;80.93;96807.11;436110;1253;110160;-41
2023/03/31 23:57:57;;;;;;;6.40;4.10;;;;;;;7.38;80.76;96792.70;435703;1263;107947;-39
